Terminal Aerodrome Forecast
Issued by NWS

Home | Current Version | Previous Version | Text Only | Print | Product List | Glossary On
Versions: 1 2 3 4 5 6 7 8 9 10 11 12 13 14 15 16 17 18 19 20 21 22 23 24 25 26 27
000
FTUS43 KDLH 191700
TAFHYR
TAF
KHYR 191731Z 1918/2018 19014G26KT P6SM VCSH SCT020 BKN050
      TEMPO 1919/1923 6SM -SHRA BKN020
     FM192300 20007KT P6SM VCSH BKN040
     FM200200 19004KT 3SM BR SCT010 BKN035
      TEMPO 2005/2009 1SM BR BKN010
     FM201300 27005KT P6SM BKN015=

USA.gov is the U.S. government's official web portal to all federal, state and local government web resources and services.